Time;durP1;ratioP1;P1;durP2;ratioP2;P2;SDS_P1;SDS_P2;PMS_P1;PMS_P2;Temp;Humidity;BMP_temperature;BMP_pressure;BME280_temperature;BME280_humidity;BME280_pressure;Samples;Min_cycle;Max_cycle;Signal;HPM_P1;HPM_P2
2023/12/15 00:00:34;;;;;;;43.78;20.85;;;3.40;74.80;;;;;;4964316;28;115283;-81
2023/12/15 00:03:02;;;;;;;44.28;21.00;;;3.40;74.80;;;;;;4946858;28;115338;-81
2023/12/15 00:05:29;;;;;;;42.92;20.35;;;3.40;74.80;;;;;;4963945;28;114430;-81
2023/12/15 00:07:56;;;;;;;44.90;20.27;;;3.40;74.90;;;;;;4964270;28;115203;-81
2023/12/15 00:10:24;;;;;;;41.00;18.70;;;3.40;74.90;;;;;;4930629;28;115110;-81
2023/12/15 00:12:51;;;;;;;47.33;20.92;;;3.50;74.80;;;;;;4946757;28;114693;-81
2023/12/15 00:15:19;;;;;;;51.33;21.98;;;3.50;74.80;;;;;;4964560;28;114298;-82
2023/12/15 00:17:46;;;;;;;44.20;19.98;;;3.50;74.80;;;;;;4964823;28;114806;-82
2023/12/15 00:20:13;;;;;;;41.10;19.48;;;3.50;74.80;;;;;;4963988;28;115043;-82
2023/12/15 00:22:41;;;;;;;45.20;22.15;;;3.50;74.70;;;;;;4966203;28;114584;-81
2023/12/15 00:25:08;;;;;;;46.03;21.83;;;3.50;74.80;;;;;;4966796;28;114821;-82
2023/12/15 00:27:36;;;;;;;46.30;21.95;;;3.50;74.70;;;;;;4967169;28;114786;-82
2023/12/15 00:30:05;;;;;;;50.60;22.02;;;3.50;74.70;;;;;;4949942;28;115052;-81
2023/12/15 00:32:32;;;;;;;52.53;21.60;;;3.60;74.70;;;;;;4966151;28;114568;-81
2023/12/15 00:34:59;;;;;;;48.72;21.73;;;3.60;74.60;;;;;;4966928;28;114718;-81
2023/12/15 00:37:27;;;;;;;51.17;22.60;;;3.50;74.60;;;;;;4968227;28;114678;-81
2023/12/15 00:39:54;;;;;;;50.17;23.00;;;3.60;74.60;;;;;;4966856;28;116088;-81
2023/12/15 00:42:22;;;;;;;50.35;23.08;;;3.50;74.60;;;;;;4967250;28;114781;-82
2023/12/15 00:44:49;;;;;;;47.95;22.17;;;3.50;74.70;;;;;;4950692;28;114341;-82
2023/12/15 00:47:16;;;;;;;51.00;22.80;;;3.60;74.70;;;;;;4966940;28;114751;-81
2023/12/15 00:49:43;;;;;;;51.38;21.10;;;3.60;74.70;;;;;;4967055;28;115827;-82
2023/12/15 00:52:11;;;;;;;50.22;21.77;;;3.60;74.60;;;;;;4965730;28;117808;-81
2023/12/15 00:54:38;;;;;;;44.85;21.55;;;3.60;74.50;;;;;;4968225;28;114619;-81
2023/12/15 00:57:05;;;;;;;43.88;20.17;;;3.60;74.30;;;;;;4992264;28;113556;-81
2023/12/15 00:59:33;;;;;;;47.50;21.20;;;3.60;74.10;;;;;;4970539;28;114625;-82
2023/12/15 01:02:01;;;;;;;51.08;22.35;;;3.50;74.10;;;;;;4967048;28;114672;-81
2023/12/15 01:04:29;;;;;;;45.00;20.23;;;3.50;74.10;;;;;;4966112;28;114735;-80
2023/12/15 01:06:56;;;;;;;55.13;24.27;;;3.40;74.00;;;;;;4966231;28;114822;-81
2023/12/15 01:09:23;;;;;;;57.13;24.40;;;3.40;74.20;;;;;;4965943;28;114365;-83
2023/12/15 01:11:51;;;;;;;51.00;23.13;;;3.40;74.20;;;;;;4949671;28;114694;-83
2023/12/15 01:14:18;;;;;;;56.20;25.15;;;3.30;74.10;;;;;;4933751;28;114666;-82
2023/12/15 01:16:48;;;;;;;50.38;21.67;;;3.20;74.00;;;;;;4934103;28;114844;-82
2023/12/15 01:19:18;;;;;;;51.35;24.02;;;3.20;73.90;;;;;;4948970;28;118064;-83
2023/12/15 01:21:46;;;;;;;50.85;23.25;;;3.20;74.00;;;;;;4965794;28;115069;-84
2023/12/15 01:24:13;;;;;;;49.50;23.45;;;3.30;74.10;;;;;;4949978;28;114511;-82
2023/12/15 01:26:40;;;;;;;49.53;22.25;;;3.20;73.90;;;;;;4967548;28;114451;-81
2023/12/15 01:29:08;;;;;;;46.35;22.20;;;3.20;73.80;;;;;;4948561;28;115978;-81
2023/12/15 01:31:35;;;;;;;49.17;21.85;;;3.20;73.80;;;;;;4948937;28;115156;-81
2023/12/15 01:34:02;;;;;;;49.25;22.00;;;3.20;73.80;;;;;;4966615;28;115295;-80
2023/12/15 01:36:29;;;;;;;48.85;21.85;;;3.20;73.80;;;;;;4967208;28;115226;-81
2023/12/15 01:38:57;;;;;;;46.30;21.70;;;3.20;73.80;;;;;;4964964;28;117958;-81
2023/12/15 01:41:24;;;;;;;47.67;22.88;;;3.20;73.80;;;;;;4964957;28;115276;-81
2023/12/15 01:43:52;;;;;;;48.20;23.67;;;3.30;73.70;;;;;;4967031;28;114972;-81
2023/12/15 01:46:19;;;;;;;51.88;22.83;;;3.20;73.60;;;;;;4966486;28;114666;-81
2023/12/15 01:48:47;;;;;;;48.90;21.70;;;3.20;73.60;;;;;;4965744;28;116359;-82
2023/12/15 01:51:15;;;;;;;48.15;24.13;;;3.20;73.60;;;;;;4964817;28;115143;-83
2023/12/15 01:53:43;;;;;;;46.13;21.48;;;3.30;73.60;;;;;;4966532;28;114667;-82
2023/12/15 01:56:10;;;;;;;47.03;23.17;;;3.30;73.70;;;;;;4966642;28;114643;-83
2023/12/15 01:58:38;;;;;;;56.67;25.98;;;3.30;73.70;;;;;;4964728;28;115078;-83
2023/12/15 02:01:07;;;;;;;62.90;29.42;;;3.30;73.50;;;;;;4964652;28;114781;-82
2023/12/15 02:03:35;;;;;;;57.03;26.52;;;3.30;73.40;;;;;;4965682;28;114612;-82
2023/12/15 02:06:02;;;;;;;66.05;30.02;;;3.30;73.40;;;;;;4965316;28;114493;-82
2023/12/15 02:08:30;;;;;;;68.13;28.73;;;3.20;73.20;;;;;;4964381;28;115191;-83
2023/12/15 02:10:57;;;;;;;64.53;30.20;;;3.10;73.10;;;;;;4965780;28;114697;-82
2023/12/15 02:13:24;;;;;;;61.28;26.40;;;3.10;73.20;;;;;;4965117;28;114605;-82
2023/12/15 02:15:52;;;;;;;55.67;26.40;;;3.00;73.20;;;;;;4965334;28;114697;-81
2023/12/15 02:18:19;;;;;;;50.88;24.02;;;2.90;73.30;;;;;;4963573;28;115072;-81
2023/12/15 02:20:47;;;;;;;60.20;26.05;;;2.90;73.40;;;;;;4964494;28;115494;-81
2023/12/15 02:23:15;;;;;;;55.80;23.90;;;2.80;73.40;;;;;;4965353;28;114611;-81
2023/12/15 02:25:42;;;;;;;64.28;25.40;;;2.80;73.40;;;;;;4949209;28;114675;-81
2023/12/15 02:28:09;;;;;;;58.33;27.00;;;2.80;73.50;;;;;;4948093;28;116041;-81
2023/12/15 02:30:37;;;;;;;57.25;27.08;;;2.70;73.60;;;;;;4931898;28;115643;-81
2023/12/15 02:33:04;;;;;;;62.25;26.17;;;2.80;73.60;;;;;;4966093;28;114583;-81
2023/12/15 02:35:32;;;;;;;60.58;27.00;;;2.70;73.60;;;;;;4965655;28;114537;-81
2023/12/15 02:38:00;;;;;;;55.90;23.92;;;2.80;73.60;;;;;;4951297;28;115256;-80
2023/12/15 02:40:28;;;;;;;59.25;25.50;;;2.70;73.50;;;;;;4985430;28;114315;-80
2023/12/15 02:42:55;;;;;;;57.20;26.17;;;2.70;73.50;;;;;;4966356;28;114464;-80
2023/12/15 02:45:22;;;;;;;56.15;26.55;;;2.70;73.50;;;;;;4965192;28;114463;-80
2023/12/15 02:47:50;;;;;;;49.05;23.63;;;2.70;73.40;;;;;;4967019;28;115011;-80
2023/12/15 02:50:17;;;;;;;51.92;23.98;;;2.60;73.30;;;;;;4969373;28;114672;-80
2023/12/15 02:52:45;;;;;;;42.97;20.48;;;2.60;73.40;;;;;;4966697;28;114552;-81
2023/12/15 02:55:13;;;;;;;40.55;21.05;;;2.60;73.40;;;;;;4965152;28;114445;-81
2023/12/15 02:57:40;;;;;;;37.95;19.58;;;2.60;73.40;;;;;;4964202;28;115318;-81
2023/12/15 03:00:08;;;;;;;37.80;17.98;;;2.50;73.60;;;;;;4980684;28;115198;-82
2023/12/15 03:02:35;;;;;;;38.38;18.85;;;2.50;73.60;;;;;;4964753;28;114568;-81
2023/12/15 03:05:03;;;;;;;34.85;17.80;;;2.50;73.50;;;;;;4953478;28;114526;-81
2023/12/15 03:07:30;;;;;;;36.13;18.17;;;2.50;73.40;;;;;;4944799;28;115196;-81
2023/12/15 03:09:59;;;;;;;34.78;17.30;;;2.60;73.50;;;;;;4945400;28;114566;-81
2023/12/15 03:12:26;;;;;;;37.42;17.38;;;2.60;73.50;;;;;;4945388;28;114408;-81
2023/12/15 03:14:56;;;;;;;34.10;17.05;;;2.60;73.30;;;;;;4945303;28;114581;-81
2023/12/15 03:17:23;;;;;;;34.67;16.98;;;2.60;73.30;;;;;;4945523;28;115227;-80
2023/12/15 03:19:51;;;;;;;35.95;17.83;;;2.50;73.10;;;;;;4945453;28;114572;-80
2023/12/15 03:22:18;;;;;;;33.95;16.85;;;2.50;73.10;;;;;;4945125;28;114509;-80
2023/12/15 03:24:45;;;;;;;31.00;15.80;;;2.50;73.00;;;;;;4929361;28;114620;-81
2023/12/15 03:27:13;;;;;;;34.90;16.75;;;2.50;72.90;;;;;;4944204;28;115001;-81
2023/12/15 03:29:42;;;;;;;32.00;15.73;;;2.60;73.10;;;;;;4945034;28;114739;-81
2023/12/15 03:32:10;;;;;;;29.35;14.95;;;2.60;72.90;;;;;;4930280;28;114599;-81
2023/12/15 03:34:37;;;;;;;32.05;16.65;;;2.60;72.90;;;;;;4965320;28;114918;-81
2023/12/15 03:37:04;;;;;;;33.83;17.05;;;2.60;72.90;;;;;;4979924;28;115073;-82
2023/12/15 03:39:32;;;;;;;36.88;17.33;;;2.70;72.60;;;;;;4963200;28;115081;-81
2023/12/15 03:42:01;;;;;;;34.15;15.73;;;2.70;72.60;;;;;;4964209;28;114813;-81
2023/12/15 03:44:28;;;;;;;32.50;15.48;;;2.70;72.50;;;;;;4948279;28;114368;-80
2023/12/15 03:46:56;;;;;;;30.25;15.93;;;2.70;72.50;;;;;;4963172;28;115010;-80
2023/12/15 03:49:23;;;;;;;35.03;15.57;;;2.70;72.50;;;;;;4963495;28;115206;-80
2023/12/15 03:51:50;;;;;;;33.03;17.50;;;2.70;72.50;;;;;;4964410;28;114868;-80
2023/12/15 03:54:17;;;;;;;33.63;16.38;;;2.70;72.30;;;;;;4947796;28;114783;-81
2023/12/15 03:56:45;;;;;;;32.92;16.90;;;2.70;72.30;;;;;;4963636;28;115060;-80
2023/12/15 03:59:12;;;;;;;32.42;17.25;;;2.70;72.30;;;;;;4963037;28;115400;-81
2023/12/15 04:01:39;;;;;;;37.53;17.60;;;2.70;72.30;;;;;;4965353;28;114343;-80
2023/12/15 04:04:07;;;;;;;32.85;17.08;;;2.70;72.40;;;;;;4965145;28;114574;-80
2023/12/15 04:06:34;;;;;;;37.10;18.27;;;2.60;72.40;;;;;;4964058;28;115166;-80
2023/12/15 04:09:01;;;;;;;34.25;17.38;;;2.60;72.40;;;;;;4962706;28;115214;-81
2023/12/15 04:11:29;;;;;;;35.38;18.48;;;2.70;72.40;;;;;;4965234;28;114605;-80
2023/12/15 04:13:56;;;;;;;38.10;19.08;;;2.70;72.50;;;;;;4965980;28;114477;-81
2023/12/15 04:16:24;;;;;;;41.00;20.80;;;2.70;72.40;;;;;;4947018;28;115682;-81
2023/12/15 04:18:52;;;;;;;40.38;20.45;;;2.70;72.40;;;;;;4963379;28;117329;-81
2023/12/15 04:21:19;;;;;;;41.85;19.75;;;2.70;72.30;;;;;;4963925;28;114539;-82
2023/12/15 04:23:49;;;;;;;38.45;18.52;;;2.70;72.20;;;;;;4989077;28;113477;-81
2023/12/15 04:26:18;;;;;;;37.83;18.92;;;2.70;72.10;;;;;;4967887;28;114572;-81
2023/12/15 04:28:45;;;;;;;36.30;18.50;;;2.70;72.00;;;;;;4963570;28;115475;-81
2023/12/15 04:31:13;;;;;;;35.40;18.10;;;2.60;72.00;;;;;;4985062;28;114408;-82
2023/12/15 04:33:40;;;;;;;37.15;18.50;;;2.70;71.90;;;;;;4966250;28;114551;-81
2023/12/15 04:36:09;;;;;;;37.15;18.58;;;2.70;72.00;;;;;;4963518;28;115067;-82
2023/12/15 04:38:36;;;;;;;41.60;19.63;;;2.70;72.00;;;;;;4963393;28;114608;-82
2023/12/15 04:41:04;;;;;;;40.45;21.15;;;2.70;72.00;;;;;;4965048;28;114292;-82
2023/12/15 04:43:31;;;;;;;39.65;20.27;;;2.70;72.00;;;;;;4964898;28;114604;-82
2023/12/15 04:46:01;;;;;;;43.13;20.55;;;2.70;71.90;;;;;;4963342;28;115144;-81
2023/12/15 04:48:32;;;;;;;41.60;18.70;;;2.70;71.80;;;;;;4963794;28;115287;-81
2023/12/15 04:50:59;;;;;;;36.80;20.20;;;2.70;71.80;;;;;;4964911;28;115008;-82
2023/12/15 04:53:28;;;;;;;43.13;20.27;;;2.70;71.90;;;;;;4963484;28;114839;-82
2023/12/15 04:55:55;;;;;;;44.60;20.02;;;2.70;72.00;;;;;;4962475;28;115186;-82
2023/12/15 04:58:22;;;;;;;37.08;18.42;;;2.70;71.80;;;;;;4962633;28;114684;-82
2023/12/15 05:00:50;;;;;;;37.00;18.85;;;2.70;71.70;;;;;;4964706;28;114604;-82
2023/12/15 05:03:17;;;;;;;34.90;18.77;;;2.70;71.60;;;;;;4963587;28;114639;-81
2023/12/15 05:05:46;;;;;;;35.63;17.83;;;2.70;71.50;;;;;;4963258;28;115666;-82
2023/12/15 05:08:13;;;;;;;36.10;18.70;;;2.60;71.50;;;;;;4963614;28;114629;-82
2023/12/15 05:10:41;;;;;;;39.67;20.08;;;2.50;71.50;;;;;;4967095;28;114597;-81
2023/12/15 05:13:08;;;;;;;34.22;18.38;;;2.60;71.50;;;;;;4966260;28;114657;-82
2023/12/15 05:15:37;;;;;;;37.25;17.85;;;2.50;71.60;;;;;;4966537;28;115043;-81
2023/12/15 05:18:04;;;;;;;35.80;18.23;;;2.60;71.70;;;;;;4965182;28;115448;-81
2023/12/15 05:20:36;;;;;;;33.92;16.90;;;2.60;71.80;;;;;;4966915;28;114403;-81
2023/12/15 05:23:04;;;;;;;35.53;17.65;;;2.60;71.70;;;;;;4982709;28;114486;-80
2023/12/15 05:25:32;;;;;;;31.52;18.30;;;2.60;71.60;;;;;;4981998;28;116241;-82
2023/12/15 05:27:59;;;;;;;33.95;17.73;;;2.60;71.70;;;;;;4965751;28;117246;-81
2023/12/15 05:30:26;;;;;;;34.03;17.83;;;2.60;71.60;;;;;;4966072;28;114683;-81
2023/12/15 05:32:54;;;;;;;35.88;18.63;;;2.60;71.60;;;;;;4950028;28;114636;-81
2023/12/15 05:35:21;;;;;;;34.60;18.52;;;2.60;71.60;;;;;;4964368;28;117366;-82
2023/12/15 05:37:52;;;;;;;36.78;18.65;;;2.60;71.40;;;;;;4965852;28;114667;-81
2023/12/15 05:40:20;;;;;;;35.67;18.42;;;2.60;71.40;;;;;;4966044;28;114488;-82
2023/12/15 05:42:47;;;;;;;36.22;18.30;;;2.50;71.40;;;;;;4967136;28;114644;-82
2023/12/15 05:45:15;;;;;;;36.00;18.42;;;2.50;71.30;;;;;;4964908;28;115083;-80
2023/12/15 05:47:43;;;;;;;34.33;17.20;;;2.50;71.30;;;;;;4965959;28;115906;-83
2023/12/15 05:50:11;;;;;;;37.80;18.65;;;2.60;71.30;;;;;;4965829;28;114581;-83
2023/12/15 05:52:39;;;;;;;32.85;16.52;;;2.50;71.30;;;;;;4965994;28;114599;-83
2023/12/15 05:55:07;;;;;;;38.80;19.38;;;2.50;71.40;;;;;;4964778;28;115179;-82
2023/12/15 05:57:34;;;;;;;34.10;17.77;;;2.60;71.30;;;;;;4965883;28;115371;-82
2023/12/15 06:00:03;;;;;;;36.38;18.10;;;2.50;71.30;;;;;;4964891;28;114767;-82
2023/12/15 06:02:31;;;;;;;36.38;18.65;;;2.50;71.30;;;;;;4949903;28;114650;-81
2023/12/15 06:04:58;;;;;;;33.97;17.08;;;2.50;71.20;;;;;;4966466;28;115396;-81
2023/12/15 06:07:26;;;;;;;35.85;18.05;;;2.40;71.30;;;;;;4985095;28;114976;-82
2023/12/15 06:09:53;;;;;;;39.83;18.75;;;2.40;71.30;;;;;;4980994;28;114455;-83
2023/12/15 06:12:21;;;;;;;32.97;17.15;;;2.40;71.30;;;;;;4949897;28;114976;-82
2023/12/15 06:14:49;;;;;;;36.75;18.05;;;2.30;71.30;;;;;;4948043;28;118311;-82
2023/12/15 06:17:18;;;;;;;35.45;17.85;;;2.40;71.40;;;;;;4952402;28;115366;-82
2023/12/15 06:19:45;;;;;;;35.53;18.23;;;2.40;71.50;;;;;;4955948;28;114821;-82
2023/12/15 06:22:12;;;;;;;34.50;17.50;;;2.30;71.50;;;;;;4924824;28;114816;-82
2023/12/15 06:24:40;;;;;;;38.95;19.73;;;2.30;71.40;;;;;;4918100;28;116386;-82
2023/12/15 06:27:08;;;;;;;38.75;19.42;;;2.40;71.30;;;;;;4919193;28;114603;-83
2023/12/15 06:29:35;;;;;;;35.00;19.15;;;2.40;71.40;;;;;;4954243;28;114684;-82
2023/12/15 06:32:03;;;;;;;38.92;20.23;;;2.40;71.40;;;;;;4956611;28;114709;-82
2023/12/15 06:34:30;;;;;;;35.35;18.75;;;2.40;71.40;;;;;;4951672;28;115403;-82
2023/12/15 06:36:57;;;;;;;34.00;17.92;;;2.40;71.30;;;;;;4943589;28;114846;-82
2023/12/15 06:39:25;;;;;;;36.50;18.15;;;2.40;71.30;;;;;;4956673;28;114502;-82
2023/12/15 06:41:52;;;;;;;37.10;18.77;;;2.40;71.40;;;;;;4958505;28;114636;-83
2023/12/15 06:44:24;;;;;;;40.42;19.75;;;2.40;71.50;;;;;;4956517;28;115492;-82
2023/12/15 06:46:54;;;;;;;40.65;20.35;;;2.40;71.40;;;;;;4952353;28;117528;-82
2023/12/15 06:49:30;;;;;;;43.53;21.25;;;2.40;71.40;;;;;;4951024;28;114731;-82
2023/12/15 06:52:01;;;;;;;41.38;19.60;;;2.40;71.40;;;;;;4965639;28;114519;-82
2023/12/15 06:54:28;;;;;;;41.13;21.45;;;2.40;71.50;;;;;;4963972;28;115080;-84
2023/12/15 06:56:56;;;;;;;40.70;19.83;;;2.40;71.40;;;;;;4931861;28;114666;-84
2023/12/15 06:59:23;;;;;;;49.35;22.50;;;2.40;71.50;;;;;;4964571;28;114594;-83
2023/12/15 07:01:50;;;;;;;45.45;22.80;;;2.40;71.60;;;;;;4953055;28;114696;-82
2023/12/15 07:04:18;;;;;;;43.70;21.45;;;2.40;71.50;;;;;;4944433;28;115460;-83
2023/12/15 07:06:45;;;;;;;38.30;18.98;;;2.40;71.30;;;;;;4947416;28;114962;-83
2023/12/15 07:09:15;;;;;;;35.95;19.08;;;2.40;71.20;;;;;;4945922;28;114636;-84
2023/12/15 07:11:46;;;;;;;35.55;18.63;;;2.20;71.10;;;;;;4930942;28;114775;-83
2023/12/15 07:14:16;;;;;;;40.90;20.38;;;2.20;71.60;;;;;;4911799;28;115543;-83
2023/12/15 07:16:44;;;;;;;40.88;21.05;;;2.20;71.60;;;;;;4942043;28;114899;-82
2023/12/15 07:19:12;;;;;;;41.15;20.00;;;2.20;71.50;;;;;;4940785;28;114516;-82
2023/12/15 07:21:40;;;;;;;43.60;22.02;;;2.30;71.40;;;;;;4944180;28;114650;-82
2023/12/15 07:24:07;;;;;;;43.80;21.67;;;2.40;71.40;;;;;;4937712;28;115349;-81
2023/12/15 07:26:34;;;;;;;40.95;21.83;;;2.40;71.20;;;;;;4943293;28;117539;-81
2023/12/15 07:29:02;;;;;;;33.53;19.13;;;2.50;70.90;;;;;;4943857;28;114534;-81
2023/12/15 07:31:29;;;;;;;38.15;19.05;;;2.50;70.70;;;;;;4944801;28;114678;-81
2023/12/15 07:33:56;;;;;;;43.75;21.67;;;2.40;70.50;;;;;;4944701;28;115159;-82
2023/12/15 07:36:27;;;;;;;38.67;19.73;;;2.20;70.50;;;;;;4944951;28;114661;-81
2023/12/15 07:38:54;;;;;;;38.67;19.58;;;2.20;70.60;;;;;;4960395;28;114419;-81
2023/12/15 07:41:21;;;;;;;37.78;21.17;;;2.10;70.50;;;;;;4946062;28;114363;-81
2023/12/15 07:43:49;;;;;;;39.63;19.80;;;2.10;70.40;;;;;;4943756;28;116341;-82
2023/12/15 07:46:20;;;;;;;36.72;19.60;;;2.10;70.50;;;;;;4943390;28;115326;-83
2023/12/15 07:48:47;;;;;;;42.80;21.80;;;2.10;70.50;;;;;;4917473;28;114773;-82
2023/12/15 07:51:20;;;;;;;41.38;21.52;;;2.10;70.70;;;;;;4925861;28;114587;-82
2023/12/15 07:53:47;;;;;;;38.80;20.52;;;2.10;70.70;;;;;;4948617;28;115180;-82
2023/12/15 07:56:23;;;;;;;37.85;19.60;;;2.10;70.50;;;;;;4953586;28;115149;-81
2023/12/15 07:58:52;;;;;;;45.97;22.15;;;2.10;70.30;;;;;;4954209;28;114736;-82
2023/12/15 08:01:21;;;;;;;47.28;23.20;;;2.10;70.40;;;;;;4949368;28;114794;-81
2023/12/15 08:03:48;;;;;;;44.10;21.80;;;2.10;70.50;;;;;;4929814;28;115570;-82
2023/12/15 08:06:16;;;;;;;35.63;19.15;;;2.10;70.50;;;;;;4944633;28;114789;-82
2023/12/15 08:08:44;;;;;;;35.45;18.52;;;2.10;70.40;;;;;;4925318;28;114890;-83
2023/12/15 08:11:13;;;;;;;32.85;17.05;;;2.10;70.20;;;;;;4911030;28;114660;-81
2023/12/15 08:13:41;;;;;;;31.08;15.27;;;2.10;70.00;;;;;;4943380;28;115447;-80
2023/12/15 08:16:08;;;;;;;33.20;17.58;;;2.00;70.00;;;;;;4943282;28;117386;-81
2023/12/15 08:18:41;;;;;;;32.90;17.45;;;2.00;69.90;;;;;;4942483;28;117537;-82
2023/12/15 08:21:10;;;;;;;33.17;16.63;;;1.90;69.80;;;;;;4943011;28;114613;-81
2023/12/15 08:23:38;;;;;;;31.58;17.70;;;1.90;70.00;;;;;;4931764;28;116769;-81
2023/12/15 08:26:05;;;;;;;32.63;16.45;;;2.00;70.10;;;;;;4958198;28;117108;-81
2023/12/15 08:28:33;;;;;;;36.10;17.30;;;2.00;70.10;;;;;;4952849;28;114635;-82
2023/12/15 08:31:00;;;;;;;39.38;17.58;;;1.90;69.80;;;;;;4949008;28;114791;-82
2023/12/15 08:33:28;;;;;;;35.90;18.60;;;2.00;69.60;;;;;;4950986;28;116084;-82
2023/12/15 08:35:55;;;;;;;35.17;17.83;;;1.90;69.30;;;;;;4950519;28;115608;-82
2023/12/15 08:38:24;;;;;;;33.90;16.38;;;1.90;69.30;;;;;;4933707;28;114818;-82
2023/12/15 08:40:54;;;;;;;35.70;17.75;;;1.90;69.50;;;;;;4943971;28;115048;-82
2023/12/15 08:43:22;;;;;;;36.25;17.27;;;1.90;69.60;;;;;;4955533;28;115118;-82
2023/12/15 08:45:52;;;;;;;36.05;17.73;;;2.00;69.60;;;;;;4956085;28;114600;-82
2023/12/15 08:48:19;;;;;;;41.20;20.52;;;2.00;69.60;;;;;;4942845;28;115032;-81
2023/12/15 08:50:49;;;;;;;31.60;16.02;;;2.00;69.60;;;;;;4947236;28;114604;-82
2023/12/15 08:53:18;;;;;;;35.88;18.63;;;2.00;69.80;;;;;;4916281;28;116278;-81
2023/12/15 08:55:46;;;;;;;34.20;19.50;;;2.00;70.10;;;;;;4946409;28;116493;-82
2023/12/15 08:58:14;;;;;;;35.83;20.10;;;2.10;70.00;;;;;;4946957;28;114734;-82
2023/12/15 09:00:42;;;;;;;29.30;16.23;;;2.20;69.60;;;;;;4948096;28;114825;-83
2023/12/15 09:03:10;;;;;;;27.45;15.18;;;2.40;69.10;;;;;;4922898;28;119354;-82
2023/12/15 09:05:39;;;;;;;30.17;15.88;;;2.40;68.80;;;;;;4942999;28;114776;-82
2023/12/15 09:08:28;;;;;;;27.42;14.43;;;2.40;68.70;;;;;;4962699;28;114584;-81
2023/12/15 09:10:59;;;;;;;27.25;14.57;;;2.40;68.40;;;;;;4947789;28;116236;-82
2023/12/15 09:13:28;;;;;;;28.98;15.25;;;2.50;68.00;;;;;;4948015;28;115183;-82
2023/12/15 09:15:58;;;;;;;28.40;14.75;;;2.60;67.80;;;;;;4946061;28;117565;-82
2023/12/15 09:18:26;;;;;;;26.92;14.02;;;2.60;67.80;;;;;;4947286;28;114398;-83
2023/12/15 09:20:55;;;;;;;26.20;14.13;;;2.60;67.60;;;;;;4947915;28;114449;-82
2023/12/15 09:23:27;;;;;;;;;;;2.70;67.40;;;;;;4931966;28;117818;-81
2023/12/15 09:26:00;;;;;;;23.38;11.93;;;2.70;67.60;;;;;;4945156;28;115200;-82
2023/12/15 09:28:27;;;;;;;20.52;12.07;;;2.70;67.40;;;;;;4947896;28;114584;-81
2023/12/15 09:30:55;;;;;;;23.35;12.27;;;2.80;67.00;;;;;;4948348;28;115023;-82
2023/12/15 09:33:22;;;;;;;22.83;12.32;;;2.80;67.10;;;;;;4947845;28;115596;-82
2023/12/15 09:35:53;;;;;;;23.83;11.48;;;2.80;67.00;;;;;;4947169;28;114814;-81
2023/12/15 09:38:24;;;;;;;24.15;11.73;;;2.80;66.20;;;;;;4946606;28;114774;-82
2023/12/15 09:40:51;;;;;;;20.33;11.57;;;2.80;66.40;;;;;;4947244;28;114618;-82
2023/12/15 09:43:19;;;;;;;21.63;11.82;;;2.70;64.60;;;;;;4944904;28;115364;-82
2023/12/15 09:45:46;;;;;;;25.23;13.05;;;2.60;65.60;;;;;;4959617;28;114647;-81
2023/12/15 09:48:13;;;;;;;25.00;13.25;;;2.50;65.80;;;;;;4963984;28;114373;-82
2023/12/15 09:50:41;;;;;;;28.35;13.15;;;2.50;66.30;;;;;;4950579;28;114621;-82
2023/12/15 09:53:08;;;;;;;28.65;13.77;;;2.70;66.30;;;;;;4929519;28;118115;-83
2023/12/15 09:55:35;;;;;;;24.17;12.10;;;2.70;65.90;;;;;;4943628;28;114678;-83
2023/12/15 09:58:03;;;;;;;28.38;12.48;;;2.80;65.50;;;;;;4946685;28;114700;-83
2023/12/15 10:00:30;;;;;;;26.77;12.77;;;2.90;65.00;;;;;;4931235;28;114537;-82
2023/12/15 10:03:00;;;;;;;24.45;11.85;;;2.90;65.10;;;;;;4944463;28;115125;-82
2023/12/15 10:05:28;;;;;;;24.30;12.57;;;3.00;65.00;;;;;;4942765;28;114874;-82
2023/12/15 10:07:55;;;;;;;21.08;12.02;;;3.00;65.10;;;;;;4945786;28;114738;-83
2023/12/15 10:10:26;;;;;;;21.25;11.73;;;3.10;64.90;;;;;;4945463;28;114523;-82
2023/12/15 10:12:56;;;;;;;21.13;11.48;;;3.20;64.80;;;;;;4945047;28;115150;-83
2023/12/15 10:15:24;;;;;;;19.40;10.35;;;3.20;64.40;;;;;;4945462;28;114660;-81
2023/12/15 10:17:57;;;;;;;18.95;10.13;;;3.30;64.70;;;;;;4947025;28;114641;-82
2023/12/15 10:20:26;;;;;;;18.45;10.43;;;3.40;64.20;;;;;;4945925;28;114512;-82
2023/12/15 10:23:04;;;;;;;17.15;9.75;;;3.50;64.00;;;;;;4945165;28;115432;-82
2023/12/15 10:25:35;;;;;;;18.52;10.60;;;3.60;63.40;;;;;;4945453;28;114759;-82
2023/12/15 10:28:06;;;;;;;20.08;10.77;;;3.70;63.50;;;;;;4945569;28;114470;-82
2023/12/15 10:30:33;;;;;;;21.27;10.57;;;3.80;63.30;;;;;;4946479;28;114384;-82
2023/12/15 10:33:01;;;;;;;20.50;11.82;;;3.80;63.00;;;;;;4928161;28;115744;-83
2023/12/15 10:35:29;;;;;;;23.42;14.25;;;3.90;62.80;;;;;;4945736;28;114638;-82
2023/12/15 10:37:58;;;;;;;38.30;25.13;;;3.90;62.60;;;;;;4945845;28;114660;-82
2023/12/15 10:40:25;;;;;;;27.50;14.20;;;3.90;62.30;;;;;;4946322;28;114799;-83
2023/12/15 10:42:53;;;;;;;23.13;11.77;;;4.00;62.20;;;;;;4928179;28;115622;-82
2023/12/15 10:45:20;;;;;;;16.98;10.43;;;4.00;62.10;;;;;;4928548;28;115003;-82
2023/12/15 10:47:50;;;;;;;15.13;9.18;;;4.00;61.90;;;;;;4929227;28;114710;-80
2023/12/15 10:50:19;;;;;;;15.63;8.73;;;4.10;61.30;;;;;;4944879;28;114501;-82
2023/12/15 10:52:46;;;;;;;16.70;9.15;;;4.10;60.70;;;;;;4944686;28;115653;-82
2023/12/15 10:55:14;;;;;;;15.93;8.40;;;4.10;60.80;;;;;;4944443;28;117009;-82
2023/12/15 10:57:41;;;;;;;15.52;8.60;;;4.10;60.30;;;;;;4927436;28;114840;-82
2023/12/15 11:00:10;;;;;;;13.57;7.40;;;4.10;60.60;;;;;;4945780;28;115229;-82
2023/12/15 11:02:38;;;;;;;11.50;7.20;;;4.10;60.30;;;;;;4945363;28;114819;-83
2023/12/15 11:05:09;;;;;;;13.50;6.68;;;4.10;60.00;;;;;;4924009;28;116518;-82
2023/12/15 11:07:39;;;;;;;14.38;6.88;;;4.10;59.80;;;;;;4941137;28;114804;-83
2023/12/15 11:10:14;;;;;;;14.30;7.07;;;4.10;59.80;;;;;;4925439;28;114691;-82
2023/12/15 11:12:43;;;;;;;13.13;7.03;;;4.10;59.60;;;;;;4947400;28;116409;-82
2023/12/15 11:15:14;;;;;;;12.05;7.10;;;4.10;59.60;;;;;;4966097;28;116304;-82
2023/12/15 11:17:55;;;;;;;14.35;6.80;;;4.10;59.20;;;;;;4914762;28;115364;-82
2023/12/15 11:20:25;;;;;;;17.25;8.77;;;4.10;58.70;;;;;;4921362;28;114786;-82
2023/12/15 11:23:07;;;;;;;16.13;8.70;;;4.00;59.30;;;;;;4943924;28;117734;-82
2023/12/15 11:25:58;;;;;;;15.85;8.95;;;4.00;59.50;;;;;;4928993;28;114635;-82
2023/12/15 11:28:30;;;;;;;19.10;9.77;;;4.00;59.50;;;;;;4947517;28;114465;-82
2023/12/15 11:30:58;;;;;;;16.48;8.75;;;3.90;59.80;;;;;;4946052;28;114760;-82
2023/12/15 11:33:39;;;;;;;11.68;6.65;;;3.90;59.80;;;;;;4945624;28;118330;-83
2023/12/15 11:36:09;;;;;;;14.63;7.80;;;3.90;59.40;;;;;;4958508;28;116622;-82
2023/12/15 11:38:37;;;;;;;15.10;8.10;;;3.90;59.20;;;;;;4958799;28;114376;-82
2023/12/15 11:41:06;;;;;;;18.42;8.43;;;3.90;59.20;;;;;;4947048;28;114751;-83
2023/12/15 11:43:36;;;;;;;16.73;8.07;;;3.90;59.20;;;;;;4959929;28;115742;-82
2023/12/15 11:46:05;;;;;;;15.23;8.07;;;3.90;59.50;;;;;;4928229;28;117022;-82
2023/12/15 11:48:34;;;;;;;20.02;9.35;;;3.90;59.60;;;;;;4944190;28;115081;-83
2023/12/15 11:51:02;;;;;;;19.42;10.05;;;3.90;59.40;;;;;;4945911;28;114598;-82
2023/12/15 11:53:32;;;;;;;23.05;11.77;;;4.00;59.20;;;;;;4944735;28;115306;-82
2023/12/15 11:56:04;;;;;;;25.90;12.85;;;4.00;59.50;;;;;;4939547;28;117379;-82
2023/12/15 11:58:33;;;;;;;29.05;14.60;;;4.00;59.70;;;;;;4934276;28;114771;-82
2023/12/15 12:01:08;;;;;;;30.33;15.70;;;3.90;59.60;;;;;;4944536;28;114573;-84
2023/12/15 12:03:40;;;;;;;36.22;17.48;;;3.90;59.30;;;;;;4942286;28;115433;-82
2023/12/15 12:06:08;;;;;;;29.45;14.88;;;3.90;59.70;;;;;;4956989;28;115197;-82
2023/12/15 12:08:36;;;;;;;34.03;17.23;;;3.90;60.10;;;;;;4933998;28;114660;-83
2023/12/15 12:11:07;;;;;;;35.60;18.13;;;3.90;59.90;;;;;;4930058;28;115128;-80
2023/12/15 12:13:39;;;;;;;33.15;17.58;;;3.90;60.00;;;;;;4943675;28;115256;-82
2023/12/15 12:16:07;;;;;;;36.75;18.70;;;3.90;60.00;;;;;;4944633;28;116983;-82
2023/12/15 12:18:35;;;;;;;28.33;16.08;;;3.90;60.30;;;;;;4926487;28;114756;-81
2023/12/15 12:21:05;;;;;;;32.22;17.20;;;4.00;59.90;;;;;;4947575;28;114414;-84
2023/12/15 12:23:32;;;;;;;33.25;16.63;;;3.90;59.80;;;;;;4947152;28;115106;-83
2023/12/15 12:26:12;;;;;;;28.80;15.00;;;3.80;59.70;;;;;;4960316;28;115127;-83
2023/12/15 12:28:48;;;;;;;31.30;16.67;;;3.80;59.90;;;;;;4947997;28;114455;-82
2023/12/15 12:31:17;;;;;;;29.52;16.30;;;3.80;59.90;;;;;;4930745;28;114830;-83
2023/12/15 12:33:45;;;;;;;32.13;17.02;;;3.70;60.10;;;;;;4946029;28;115110;-83